createdAt,value
2017-05-15T00:00:03.186Z,1025.9
2017-05-15T00:05:03.536Z,1025.9
2017-05-15T00:10:03.374Z,1025.88
2017-05-15T00:15:03.108Z,1025.88
2017-05-15T00:20:02.834Z,1025.94
2017-05-15T00:25:03.491Z,1026.04
2017-05-15T00:30:03.282Z,1026.02
2017-05-15T00:35:02.872Z,1026.16
2017-05-15T00:40:02.677Z,1026.09
2017-05-15T00:45:03.352Z,1026.12
2017-05-15T00:50:03.212Z,1026.16
2017-05-15T00:55:02.929Z,1026.15
2017-05-15T01:00:03.532Z,1026.13
2017-05-15T01:05:03.326Z,1026.16
2017-05-15T01:10:02.984Z,1026.23
2017-05-15T01:15:03.609Z,1026.3
2017-05-15T01:20:03.353Z,1026.34
2017-05-15T01:25:03.121Z,1026.3
2017-05-15T01:30:02.712Z,1026.31
2017-05-15T01:35:03.338Z,1026.4
2017-05-15T01:40:03.092Z,1026.42
2017-05-15T01:45:02.699Z,1026.4
2017-05-15T01:50:03.324Z,1026.44
2017-05-15T01:55:03.233Z,1026.49
2017-05-15T02:00:02.816Z,1026.52
2017-05-15T02:05:03.442Z,1026.54
2017-05-15T02:10:03.241Z,1026.6
2017-05-15T02:15:03.077Z,1026.55
2017-05-15T02:20:02.872Z,1026.56
2017-05-15T02:25:03.568Z,1026.66
2017-05-15T02:30:03.284Z,1026.63
2017-05-15T02:35:02.932Z,1026.73
2017-05-15T02:40:02.792Z,1026.75
2017-05-15T02:45:03.405Z,1026.76
2017-05-15T02:50:03.240Z,1026.8
2017-05-15T02:55:02.998Z,1026.76
2017-05-15T03:00:02.758Z,1026.84
2017-05-15T03:05:03.535Z,1026.79
2017-05-15T03:10:03.207Z,1026.79
2017-05-15T03:15:02.778Z,1026.82
2017-05-15T03:20:03.503Z,1026.97
2017-05-15T03:25:03.081Z,1026.93
2017-05-15T03:30:02.887Z,1027
2017-05-15T03:35:03.661Z,1027.05
2017-05-15T03:40:03.399Z,1027.05
2017-05-15T03:45:03.016Z,1027.07
2017-05-15T03:50:02.691Z,1027.11
2017-05-15T03:55:03.376Z,1027.22
2017-05-15T04:00:03.104Z,1027.23
2017-05-15T04:05:02.802Z,1027.25
2017-05-15T04:10:03.637Z,1027.31
2017-05-15T04:15:03.358Z,1027.34
2017-05-15T04:20:03.066Z,1027.48
2017-05-15T04:25:02.790Z,1027.51
2017-05-15T04:30:02.815Z,1027.59
2017-05-15T04:35:03.421Z,1027.68
2017-05-15T04:40:03.265Z,1027.75
2017-05-15T04:45:02.952Z,1027.81
2017-05-15T04:50:02.768Z,1027.82
2017-05-15T04:55:03.518Z,1027.83
2017-05-15T05:00:03.204Z,1027.82
2017-05-15T05:05:03.016Z,1027.85
2017-05-15T05:10:02.774Z,1027.9
2017-05-15T05:15:03.588Z,1027.98
2017-05-15T05:20:03.227Z,1027.99
2017-05-15T05:25:02.867Z,1028.1
2017-05-15T05:30:03.479Z,1028.11
2017-05-15T05:35:03.218Z,1028.13
2017-05-15T05:40:02.944Z,1028.14
2017-05-15T05:45:03.622Z,1028.25
2017-05-15T05:50:03.238Z,1028.3
2017-05-15T05:55:02.835Z,1028.37
2017-05-15T06:00:03.450Z,1028.43
2017-05-15T06:05:03.175Z,1028.51
2017-05-15T06:10:02.960Z,1028.5
2017-05-15T06:15:02.700Z,1028.54
2017-05-15T06:20:03.340Z,1028.57
2017-05-15T06:25:03.096Z,1028.5
2017-05-15T06:30:02.758Z,1028.48
2017-05-15T06:35:03.539Z,1028.4
2017-05-15T06:40:03.307Z,1028.37
2017-05-15T06:45:03.130Z,1028.46
2017-05-15T06:50:02.715Z,1028.41
2017-05-15T06:55:03.424Z,1028.5
2017-05-15T07:00:03.248Z,1028.43
2017-05-15T07:05:02.892Z,1028.55
2017-05-15T07:10:03.656Z,1028.62
2017-05-15T07:15:03.435Z,1028.58
2017-05-15T07:20:03.180Z,1028.63
2017-05-15T07:25:02.928Z,1028.66
2017-05-15T07:30:02.789Z,1028.67
2017-05-15T07:35:03.393Z,1028.71
2017-05-15T07:40:03.175Z,1028.82
2017-05-15T07:45:03.004Z,1028.78
2017-05-15T07:50:02.932Z,1028.98
2017-05-15T07:55:03.554Z,1028.97
2017-05-15T08:00:03.357Z,1029.07
2017-05-15T08:05:03.115Z,1029.16
2017-05-15T08:10:02.787Z,1029.18
2017-05-15T08:15:03.648Z,1029.21
2017-05-15T08:20:03.494Z,1029.28
2017-05-15T08:25:03.221Z,1029.41
2017-05-15T08:30:03.077Z,1029.3
2017-05-15T08:35:02.922Z,1029.33
2017-05-15T08:40:02.773Z,1029.33
2017-05-15T08:45:03.552Z,1029.27
2017-05-15T08:50:03.139Z,1029.37
2017-05-15T08:55:02.747Z,1029.46
2017-05-15T09:00:03.393Z,1029.44
2017-05-15T09:05:03.126Z,1029.36
2017-05-15T09:10:03.282Z,1029.28
2017-05-15T09:15:03.301Z,1029.3
2017-05-15T09:20:02.908Z,1029.37
2017-05-15T09:25:02.710Z,1029.39
2017-05-15T09:30:03.390Z,1029.45
2017-05-15T09:35:03.018Z,1029.3
2017-05-15T09:40:02.863Z,1029.17
2017-05-15T09:45:02.701Z,1029.14
2017-05-15T09:50:03.389Z,1029.26
2017-05-15T09:55:03.136Z,1029.23
2017-05-15T10:00:02.752Z,1029.12
2017-05-15T10:05:03.503Z,1029.26
2017-05-15T10:10:03.167Z,1029.25
2017-05-15T10:15:02.730Z,1029.17
2017-05-15T10:20:03.361Z,1029.08
2017-05-15T10:25:08.086Z,1029.05
2017-05-15T10:30:03.155Z,1029.09
2017-05-15T10:35:03.160Z,1029.02
2017-05-15T10:40:03.578Z,1029.14
2017-05-15T10:45:03.362Z,1029.01
2017-05-15T10:50:03.124Z,1029.02
2017-05-15T10:55:02.840Z,1028.92
2017-05-15T11:00:03.529Z,1029.04
2017-05-15T11:05:03.177Z,1029.06
2017-05-15T11:10:03.021Z,1029
2017-05-15T11:15:02.697Z,1028.97
2017-05-15T11:20:03.331Z,1028.82
2017-05-15T11:25:03.065Z,1028.9
2017-05-15T11:30:02.996Z,1028.89
2017-05-15T11:35:02.666Z,1028.93
2017-05-15T11:40:02.730Z,1028.92
2017-05-15T11:45:02.884Z,1028.86
2017-05-15T11:50:02.772Z,1028.81
2017-05-15T11:55:03.595Z,1029.01
2017-05-15T12:00:03.554Z,1028.89
2017-05-15T12:05:03.217Z,1028.95
2017-05-15T12:10:03.367Z,1028.85
2017-05-15T12:15:03.651Z,1028.91
2017-05-15T12:20:03.127Z,1028.89
2017-05-15T12:25:03.374Z,1028.74
2017-05-15T12:30:03.421Z,1028.83
2017-05-15T12:35:03.687Z,1028.8
2017-05-15T12:40:02.665Z,1028.75
2017-05-15T12:45:03.037Z,1028.73
2017-05-15T12:50:03.546Z,1028.76
2017-05-15T12:55:03.612Z,1028.73
2017-05-15T13:00:03.495Z,1028.69
2017-05-15T13:05:03.188Z,1028.64
2017-05-15T13:10:03.436Z,1028.66
2017-05-15T13:15:03.341Z,1028.65
2017-05-15T13:20:03.350Z,1028.63
2017-05-15T13:25:02.697Z,1028.7
2017-05-15T13:30:03.143Z,1028.57
2017-05-15T13:35:03.473Z,1028.48
2017-05-15T13:40:03.179Z,1028.53
2017-05-15T13:45:03.154Z,1028.53
2017-05-15T13:50:02.838Z,1028.44
2017-05-15T13:55:02.764Z,1028.36
2017-05-15T14:00:02.758Z,1028.34
2017-05-15T14:05:03.171Z,1028.29
2017-05-15T14:10:03.609Z,1028.18
2017-05-15T14:15:05.511Z,1028.16
2017-05-15T14:20:02.893Z,1028.12
2017-05-15T14:25:03.223Z,1028.09
2017-05-15T14:30:03.592Z,1027.97
2017-05-15T14:35:03.537Z,1028.01
2017-05-15T14:40:03.787Z,1027.85
2017-05-15T14:45:03.140Z,1027.82
2017-05-15T14:50:02.837Z,1027.85
2017-05-15T14:55:02.894Z,1027.75
2017-05-15T15:00:02.819Z,1027.75
2017-05-15T15:05:03.125Z,1027.78
2017-05-15T15:10:03.040Z,1027.69
2017-05-15T15:15:03.644Z,1027.65
2017-05-15T15:20:03.675Z,1027.78
2017-05-15T15:25:03.157Z,1027.78
2017-05-15T15:30:03.283Z,1027.71
2017-05-15T15:35:03.289Z,1027.64
2017-05-15T15:40:03.622Z,1027.63
2017-05-15T15:45:03.629Z,1027.63
2017-05-15T15:50:03.480Z,1027.54
2017-05-15T15:55:02.958Z,1027.63
2017-05-15T16:00:03.598Z,1027.57
2017-05-15T16:05:03.447Z,1027.51
2017-05-15T16:10:03.252Z,1027.55
2017-05-15T16:15:03.254Z,1027.54
2017-05-15T16:20:02.955Z,1027.52
2017-05-15T16:25:03.184Z,1027.51
2017-05-15T16:30:02.935Z,1027.45
2017-05-15T16:35:02.656Z,1027.4
2017-05-15T16:40:03.378Z,1027.43
2017-05-15T16:45:03.042Z,1027.41
2017-05-15T16:50:02.719Z,1027.43
2017-05-15T16:55:03.496Z,1027.33
2017-05-15T17:00:03.127Z,1027.32
2017-05-15T17:05:03.008Z,1027.32
2017-05-15T17:10:02.785Z,1027.29
2017-05-15T17:15:03.378Z,1027.3
2017-05-15T17:20:03.132Z,1027.23
2017-05-15T17:25:02.750Z,1027.3
2017-05-15T17:30:03.577Z,1027.32
2017-05-15T17:35:03.230Z,1027.3
2017-05-15T17:40:03.000Z,1027.29
2017-05-15T17:45:02.856Z,1027.25
2017-05-15T17:50:03.537Z,1027.27
2017-05-15T17:55:03.278Z,1027.26
2017-05-15T18:00:03.195Z,1027.26
2017-05-15T18:05:02.978Z,1027.21
2017-05-15T18:10:03.618Z,1027.27
2017-05-15T18:15:03.276Z,1027.17
2017-05-15T18:20:03.192Z,1027.21
2017-05-15T18:25:03.273Z,1027.25
2017-05-15T18:30:03.186Z,1027.23
2017-05-15T18:35:03.422Z,1027.26
2017-05-15T18:40:03.431Z,1027.37
2017-05-15T18:45:03.512Z,1027.35
2017-05-15T18:50:03.452Z,1027.46
2017-05-15T18:55:02.920Z,1027.46
2017-05-15T19:00:03.333Z,1027.55
2017-05-15T19:05:02.922Z,1027.56
2017-05-15T19:10:02.872Z,1027.55
2017-05-15T19:15:02.794Z,1027.6
2017-05-15T19:20:03.059Z,1027.59
2017-05-15T19:25:03.160Z,1027.63
2017-05-15T19:30:03.461Z,1027.71
2017-05-15T19:35:02.958Z,1027.78
2017-05-15T19:40:03.114Z,1027.78
2017-05-15T19:45:03.172Z,1027.78
2017-05-15T19:50:03.049Z,1027.76
2017-05-15T19:55:03.393Z,1027.8
2017-05-15T20:00:03.470Z,1027.81
2017-05-15T20:05:03.278Z,1027.9
2017-05-15T20:10:03.387Z,1027.9
2017-05-15T20:15:02.941Z,1027.88
2017-05-15T20:20:02.921Z,1027.89
2017-05-15T20:25:02.950Z,1027.9
2017-05-15T20:30:02.714Z,1027.85
2017-05-15T20:35:02.767Z,1027.87
2017-05-15T20:40:03.230Z,1027.91
2017-05-15T20:45:03.224Z,1027.82
2017-05-15T20:50:02.649Z,1027.93
2017-05-15T20:55:03.358Z,1027.81
2017-05-15T21:00:03.095Z,1027.76
2017-05-15T21:05:03.025Z,1027.76
2017-05-15T21:10:03.542Z,1027.77
2017-05-15T21:15:03.640Z,1027.82
2017-05-15T21:20:02.774Z,1027.82
2017-05-15T21:25:02.889Z,1027.81
2017-05-15T21:30:03.024Z,1027.78
2017-05-15T21:35:02.936Z,1027.79
2017-05-15T21:40:03.596Z,1027.77
2017-05-15T21:45:03.322Z,1027.78
2017-05-15T21:50:03.136Z,1027.79
2017-05-15T21:55:02.707Z,1027.72
2017-05-15T22:00:03.437Z,1027.73
2017-05-15T22:05:03.375Z,1027.7
2017-05-15T22:10:03.274Z,1027.68
2017-05-15T22:15:02.892Z,1027.65
2017-05-15T22:20:02.733Z,1027.68
2017-05-15T22:25:03.507Z,1027.67
2017-05-15T22:30:03.513Z,1027.71
2017-05-15T22:35:03.334Z,1027.68
2017-05-15T22:40:03.071Z,1027.61
2017-05-15T22:45:02.722Z,1027.61
2017-05-15T22:50:03.507Z,1027.68
2017-05-15T22:55:03.112Z,1027.69
2017-05-15T23:00:02.895Z,1027.66
2017-05-15T23:05:03.436Z,1027.59
2017-05-15T23:10:03.151Z,1027.58
2017-05-15T23:15:05.829Z,1027.59
2017-05-15T23:20:03.421Z,1027.61
2017-05-15T23:25:03.210Z,1027.61
2017-05-15T23:30:03.090Z,1027.57
2017-05-15T23:35:02.715Z,1027.56
2017-05-15T23:41:06.450Z,1027.51
2017-05-15T23:45:03.010Z,1027.46
2017-05-15T23:50:02.746Z,1027.47
2017-05-15T23:55:03.520Z,1027.47
